Time;durP1;ratioP1;P1;durP2;ratioP2;P2;SDS_P1;SDS_P2;PMS_P1;PMS_P2;Temp;Humidity;BMP_temperature;BMP_pressure;BME280_temperature;BME280_humidity;BME280_pressure;Samples;Min_cycle;Max_cycle;Signal;HPM_P1;HPM_P2
2023/06/21 00:01:38;;;;;;;24.75;15.55;;;;;;;16.76;100.00;101064.94;5033509;28;20087;-81
2023/06/21 00:04:04;;;;;;;24.42;15.18;;;;;;;16.75;100.00;101060.53;5033475;28;20179;-82
2023/06/21 00:06:30;;;;;;;28.53;15.70;;;;;;;16.75;100.00;101059.72;5032758;28;20034;-81
2023/06/21 00:08:56;;;;;;;24.40;15.25;;;;;;;16.72;100.00;101060.22;5033352;28;20037;-81
2023/06/21 00:11:22;;;;;;;25.77;14.90;;;;;;;16.72;100.00;101065.72;5034522;28;20021;-81
2023/06/21 00:13:48;;;;;;;24.88;15.40;;;;;;;16.72;100.00;101079.41;5032372;28;20128;-81
2023/06/21 00:16:14;;;;;;;24.37;15.30;;;;;;;16.72;100.00;101073.94;5032980;28;20087;-81
2023/06/21 00:18:39;;;;;;;26.02;16.00;;;;;;;16.72;100.00;101087.63;5033252;28;20030;-81
2023/06/21 00:21:05;;;;;;;25.15;16.27;;;;;;;16.70;100.00;101085.16;5033101;28;20057;-81
2023/06/21 00:23:30;;;;;;;27.23;16.07;;;;;;;16.70;100.00;101081.56;5033364;28;20030;-81
2023/06/21 00:25:56;;;;;;;27.17;17.30;;;;;;;16.69;100.00;101078.00;5016525;28;20033;-81
2023/06/21 00:28:21;;;;;;;29.10;17.70;;;;;;;16.72;100.00;101082.16;5033188;28;20069;-81
2023/06/21 00:30:47;;;;;;;31.67;16.75;;;;;;;16.70;100.00;101074.19;5016324;28;20052;-81
2023/06/21 00:33:12;;;;;;;25.97;16.80;;;;;;;16.70;100.00;101078.81;5016346;28;20087;-81
2023/06/21 00:35:37;;;;;;;28.40;16.67;;;;;;;16.70;100.00;101074.19;5016054;28;20030;-81
2023/06/21 00:38:03;;;;;;;26.87;17.23;;;;;;;16.71;100.00;101078.59;5016664;28;20481;-81
2023/06/21 00:40:28;;;;;;;27.53;17.77;;;;;;;16.69;100.00;101083.47;5033698;28;20440;-81
2023/06/21 00:42:54;;;;;;;28.75;17.17;;;;;;;16.68;100.00;101079.06;5016273;28;20064;-81
2023/06/21 00:45:20;;;;;;;30.03;17.17;;;;;;;16.70;100.00;101084.28;5034055;28;20091;-81
2023/06/21 00:47:46;;;;;;;30.10;17.33;;;;;;;16.67;100.00;101081.00;5032421;28;20481;-81
2023/06/21 00:50:12;;;;;;;30.10;18.03;;;;;;;16.70;100.00;101089.78;5034029;28;20107;-81
2023/06/21 00:52:40;;;;;;;31.63;16.98;;;;;;;16.69;100.00;101082.66;5016009;28;20060;-81
2023/06/21 00:55:06;;;;;;;28.42;16.98;;;;;;;16.69;100.00;101088.13;5033049;28;20030;-81
2023/06/21 00:57:33;;;;;;;27.77;17.30;;;;;;;16.67;100.00;101091.94;5016034;28;20051;-81
2023/06/21 00:59:59;;;;;;;30.80;17.57;;;;;;;16.69;100.00;101085.41;5032595;28;20280;-81
2023/06/21 01:02:24;;;;;;;31.63;17.25;;;;;;;16.67;100.00;101088.38;5033641;28;20039;-81
2023/06/21 01:04:50;;;;;;;28.83;17.37;;;;;;;16.67;100.00;101088.38;5032588;28;20033;-81
2023/06/21 01:07:45;;;;;;;30.13;17.33;;;;;;;16.66;100.00;101097.66;5015273;28;20033;-81
2023/06/21 01:10:29;;;;;;;26.00;16.58;;;;;;;16.66;100.00;101103.16;5033499;28;20094;-81
2023/06/21 01:13:16;;;;;;;30.35;17.25;;;;;;;16.67;100.00;101096.59;5032053;28;20069;-81
2023/06/21 01:15:47;;;;;;;29.75;17.05;;;;;;;16.64;100.00;101095.19;5032502;28;20194;-81
2023/06/21 01:18:14;;;;;;;29.20;16.87;;;;;;;16.64;100.00;101091.63;5032287;28;20112;-81
2023/06/21 01:20:41;;;;;;;30.10;18.02;;;;;;;16.64;100.00;101086.97;5032288;28;20435;-81
2023/06/21 01:23:38;;;;;;;27.75;17.50;;;;;;;16.63;100.00;101096.25;5015592;28;20123;-81
2023/06/21 01:26:22;;;;;;;29.45;17.35;;;;;;;16.64;100.00;101099.84;5036545;28;20377;-81
2023/06/21 01:29:11;;;;;;;32.08;17.77;;;;;;;16.60;100.00;101095.94;5037195;28;20039;-81
2023/06/21 01:31:42;;;;;;;29.83;16.77;;;;;;;16.62;100.00;101099.25;5036094;28;20387;-81
2023/06/21 01:34:12;;;;;;;30.50;17.60;;;;;;;16.61;100.00;101100.34;5036590;28;20428;-81
2023/06/21 01:36:39;;;;;;;30.42;17.67;;;;;;;16.61;100.00;101108.56;5035836;28;20040;-81
2023/06/21 01:39:08;;;;;;;30.70;17.27;;;;;;;16.59;100.00;101111.53;5036209;28;20034;-81
2023/06/21 01:41:35;;;;;;;28.58;17.33;;;;;;;16.61;100.00;101108.56;5019502;28;20166;-81
2023/06/21 01:44:02;;;;;;;31.40;18.07;;;;;;;16.59;100.00;101117.00;5035961;28;20088;-81
2023/06/21 01:46:29;;;;;;;27.35;17.10;;;;;;;16.58;100.00;101109.88;5037167;28;20039;-81
2023/06/21 01:48:55;;;;;;;35.40;18.42;;;;;;;16.56;100.00;101103.00;5035740;28;20033;-81
2023/06/21 01:51:22;;;;;;;33.63;17.95;;;;;;;16.54;100.00;101108.72;5019409;28;20040;-81
2023/06/21 01:53:48;;;;;;;29.35;18.00;;;;;;;16.53;100.00;101106.22;5035992;28;20079;-81
2023/06/21 01:56:17;;;;;;;33.93;18.07;;;;;;;16.51;100.00;101111.97;5037020;28;20036;-81
2023/06/21 01:58:42;;;;;;;33.53;18.23;;;;;;;16.49;100.00;101117.69;5035685;28;20034;-81
2023/06/21 02:01:11;;;;;;;32.70;18.93;;;;;;;16.52;100.00;101115.50;5019256;28;20039;-81
2023/06/21 02:03:40;;;;;;;34.35;18.27;;;;;;;16.52;100.00;101119.09;5035488;28;20053;-81
2023/06/21 02:06:07;;;;;;;34.05;19.25;;;;;;;16.51;100.00;101116.63;5034959;28;20029;-81
2023/06/21 02:08:33;;;;;;;32.90;18.90;;;;;;;16.49;100.00;101128.63;5037001;28;20025;-81
2023/06/21 02:11:02;;;;;;;30.83;18.48;;;;;;;16.51;100.00;101128.38;5019158;28;20082;-81
2023/06/21 02:13:27;;;;;;;33.20;18.03;;;;;;;16.50;100.00;101123.97;5035212;28;20017;-81
2023/06/21 02:15:54;;;;;;;36.58;19.58;;;;;;;16.50;100.00;101126.72;5035368;28;20038;-81
2023/06/21 02:18:24;;;;;;;36.30;19.40;;;;;;;16.50;100.00;101123.97;5035569;28;20033;-81
2023/06/21 02:20:50;;;;;;;35.03;19.30;;;;;;;16.49;100.00;101138.78;5035542;28;20144;-81
2023/06/21 02:23:16;;;;;;;32.33;18.63;;;;;;;16.50;100.00;101134.94;5035242;28;20468;-81
2023/06/21 02:25:41;;;;;;;34.97;19.20;;;;;;;16.51;100.00;101149.47;5035033;28;20069;-81
2023/06/21 02:28:06;;;;;;;31.77;19.50;;;;;;;16.49;100.00;101152.47;5018602;28;20504;-81
2023/06/21 02:30:32;;;;;;;37.87;19.73;;;;;;;16.44;100.00;101144.97;5002219;28;20124;-81
2023/06/21 02:32:57;;;;;;;38.25;19.75;;;;;;;16.43;100.00;101153.44;5035573;28;20030;-81
2023/06/21 02:35:23;;;;;;;35.20;20.17;;;;;;;16.41;100.00;101155.59;5017963;28;20060;-81
2023/06/21 02:37:48;;;;;;;34.93;19.83;;;;;;;16.40;100.00;101170.38;5018036;28;20060;-81
2023/06/21 02:40:14;;;;;;;38.57;21.13;;;;;;;16.38;100.00;101159.66;5002156;28;20447;-81
2023/06/21 02:42:40;;;;;;;37.58;20.30;;;;;;;16.37;100.00;101159.91;5034869;28;20057;-81
2023/06/21 02:45:07;;;;;;;34.58;19.55;;;;;;;16.35;100.00;101162.88;5018497;28;20087;-81
2023/06/21 02:47:33;;;;;;;37.28;20.25;;;;;;;16.36;100.00;101172.78;5018518;28;20127;-81
2023/06/21 02:49:58;;;;;;;37.10;20.70;;;;;;;16.33;100.00;101167.78;5018455;28;20029;-81
2023/06/21 02:52:24;;;;;;;38.08;20.05;;;;;;;16.33;100.00;101165.06;5018328;28;20530;-81
2023/06/21 02:54:51;;;;;;;42.87;21.57;;;;;;;16.33;100.00;101175.16;5034571;28;20036;-81
2023/06/21 02:57:17;;;;;;;40.63;20.75;;;;;;;16.34;100.00;101174.09;5018249;28;20026;-81
2023/06/21 02:59:42;;;;;;;38.70;21.10;;;;;;;16.34;100.00;101174.09;5001932;28;20032;-81
2023/06/21 03:02:09;;;;;;;40.27;20.87;;;;;;;16.33;100.00;101180.63;5035703;28;20026;-81
2023/06/21 03:04:35;;;;;;;37.22;21.42;;;;;;;16.34;100.00;101185.03;5018130;28;20084;-81
2023/06/21 03:07:01;;;;;;;41.85;21.90;;;;;;;16.32;100.00;101188.03;5001132;28;20037;-81
2023/06/21 03:09:27;;;;;;;41.33;21.58;;;;;;;16.31;100.00;101206.38;5034437;28;20393;-81
2023/06/21 03:11:53;;;;;;;38.07;21.73;;;;;;;16.33;100.00;101202.53;5034655;28;20037;-81
2023/06/21 03:14:18;;;;;;;40.28;21.55;;;;;;;16.29;100.00;101202.22;5017961;28;20033;-81
2023/06/21 03:16:45;;;;;;;33.30;19.60;;;;;;;16.30;100.00;101209.34;5017932;28;20401;-81
2023/06/21 03:19:10;;;;;;;36.58;20.27;;;;;;;16.30;100.00;101212.91;5034470;28;20037;-81
2023/06/21 03:21:35;;;;;;;40.27;21.73;;;;;;;16.30;100.00;101223.03;5017808;28;20040;-81
2023/06/21 03:24:02;;;;;;;41.63;21.80;;;;;;;16.33;100.00;101224.44;5017685;28;20427;-81
2023/06/21 03:26:28;;;;;;;35.47;20.10;;;;;;;16.35;100.00;101227.78;5034021;28;20086;-82
2023/06/21 03:28:54;;;;;;;44.53;22.60;;;;;;;16.34;100.00;101224.19;5017833;28;20137;-81
2023/06/21 03:31:20;;;;;;;40.63;22.65;;;;;;;16.35;100.00;101219.56;5035409;28;20033;-81
2023/06/21 03:33:46;;;;;;;39.95;21.55;;;;;;;16.38;100.00;101217.16;5035311;28;20030;-81
2023/06/21 03:36:12;;;;;;;42.42;22.58;;;;;;;16.40;100.00;101214.19;5034746;28;20392;-81
2023/06/21 03:38:38;;;;;;;43.03;22.13;;;;;;;16.39;100.00;101221.56;5033841;28;20041;-81
2023/06/21 03:41:03;;;;;;;37.43;22.03;;;;;;;16.42;100.00;101217.53;5033739;28;20049;-81
2023/06/21 03:43:29;;;;;;;38.43;21.77;;;;;;;16.44;100.00;101218.91;5033572;28;20475;-81
2023/06/21 03:45:54;;;;;;;48.43;23.33;;;;;;;16.49;100.00;101215.47;5035053;28;20037;-80
2023/06/21 03:48:19;;;;;;;40.45;22.35;;;;;;;16.55;100.00;101213.63;5033857;28;20417;-81
2023/06/21 03:50:45;;;;;;;45.77;23.00;;;;;;;16.58;100.00;101216.72;5033861;28;20041;-81
2023/06/21 03:53:10;;;;;;;45.27;22.70;;;;;;;16.60;100.00;101213.72;5017222;28;20120;-81
2023/06/21 03:55:37;;;;;;;48.60;23.47;;;;;;;16.64;100.00;101220.38;5034704;28;20378;-81
2023/06/21 03:58:03;;;;;;;41.25;23.08;;;;;;;16.66;100.00;101224.50;5017418;28;20519;-81
2023/06/21 04:00:28;;;;;;;48.78;24.17;;;;;;;16.66;100.00;101221.78;5033702;28;20067;-81
2023/06/21 04:02:54;;;;;;;44.93;22.73;;;;;;;16.67;100.00;101228.09;5017153;28;20373;-81
2023/06/21 04:05:19;;;;;;;42.80;23.30;;;;;;;16.68;100.00;101237.97;5034709;28;20385;-81
2023/06/21 04:07:46;;;;;;;44.17;22.70;;;;;;;16.69;100.00;101244.28;5034111;28;20092;-81
2023/06/21 04:10:13;;;;;;;43.08;23.10;;;;;;;16.66;100.00;101240.94;5033237;28;20477;-81
2023/06/21 04:12:39;;;;;;;41.17;23.20;;;;;;;16.66;100.00;101240.94;5034605;28;20029;-81
2023/06/21 04:15:05;;;;;;;43.75;23.40;;;;;;;16.66;100.00;101253.81;5033423;28;20044;-81
2023/06/21 04:17:31;;;;;;;45.03;23.73;;;;;;;16.66;100.00;101257.38;4999925;28;20049;-81
2023/06/21 04:19:56;;;;;;;46.77;22.93;;;;;;;16.64;100.00;101259.56;5033198;28;20036;-81
2023/06/21 04:22:24;;;;;;;44.37;24.43;;;;;;;16.67;100.00;101272.75;5033064;28;20072;-81
2023/06/21 04:24:50;;;;;;;50.38;25.75;;;;;;;16.70;100.00;101273.31;5032799;28;20041;-81
2023/06/21 04:27:17;;;;;;;47.75;25.60;;;;;;;16.70;100.00;101270.59;5032879;28;20049;-81
2023/06/21 04:29:43;;;;;;;48.53;25.67;;;;;;;16.71;100.00;101266.78;5016381;28;20068;-81
2023/06/21 04:32:09;;;;;;;51.53;26.13;;;;;;;16.73;100.00;101275.59;5034040;28;20069;-81
2023/06/21 04:34:36;;;;;;;47.22;25.40;;;;;;;16.75;100.00;101270.69;5032824;28;20033;-82
2023/06/21 04:37:05;;;;;;;46.80;25.25;;;;;;;16.81;100.00;101280.66;5017059;28;20040;-81
2023/06/21 04:39:32;;;;;;;55.37;26.27;;;;;;;16.77;100.00;101276.75;5012958;28;20080;-82
2023/06/21 04:42:00;;;;;;;47.50;25.90;;;;;;;16.83;100.00;101287.56;5014421;28;20061;-81
2023/06/21 04:44:27;;;;;;;50.88;26.35;;;;;;;16.90;100.00;101292.09;5014258;28;20070;-81
2023/06/21 04:46:57;;;;;;;52.00;26.52;;;;;;;16.93;100.00;101281.47;4996663;28;20544;-81
2023/06/21 04:49:28;;;;;;;51.72;27.48;;;;;;;17.08;100.00;101285.53;5012737;28;20032;-81
2023/06/21 04:51:57;;;;;;;59.80;28.93;;;;;;;17.09;100.00;101284.47;5012839;28;20084;-81
2023/06/21 04:54:26;;;;;;;51.65;27.80;;;;;;;17.19;100.00;101277.22;5012883;28;20080;-82
2023/06/21 04:56:52;;;;;;;51.67;28.25;;;;;;;17.29;100.00;101271.09;5012714;28;20060;-81
2023/06/21 04:59:18;;;;;;;52.27;28.17;;;;;;;17.35;100.00;101272.84;5012484;28;20041;-81
2023/06/21 05:01:44;;;;;;;50.13;27.95;;;;;;;17.33;100.00;101288.72;5012704;28;20030;-81
2023/06/21 05:04:10;;;;;;;51.53;28.38;;;;;;;17.38;100.00;101287.97;4996212;28;20133;-81
2023/06/21 05:06:35;;;;;;;47.83;28.70;;;;;;;17.35;100.00;101281.06;5012326;28;20476;-81
2023/06/21 05:09:01;;;;;;;47.70;26.83;;;;;;;17.40;100.00;101295.94;5012582;28;20025;-81
2023/06/21 05:11:27;;;;;;;46.50;27.17;;;;;;;17.45;100.00;101301.50;5014111;28;20117;-81
2023/06/21 05:13:53;;;;;;;47.13;28.08;;;;;;;17.56;100.00;101297.00;4996434;28;20101;-81
2023/06/21 05:16:18;;;;;;;48.67;29.10;;;;;;;17.69;100.00;101307.63;4996323;28;20040;-81
2023/06/21 05:18:44;;;;;;;45.90;28.67;;;;;;;17.86;100.00;101302.09;5012547;28;20037;-83
2023/06/21 05:21:09;;;;;;;42.00;25.70;;;;;;;17.93;100.00;101311.00;4995854;28;20555;-85
2023/06/21 05:23:34;;;;;;;39.77;25.07;;;;;;;18.01;100.00;101313.34;5012529;28;20033;-87
2023/06/21 05:26:00;;;;;;;34.33;23.43;;;;;;;18.06;100.00;101321.63;4980090;28;20053;-86
2023/06/21 05:28:26;;;;;;;35.53;23.23;;;;;;;18.10;100.00;101326.59;5013581;28;20076;-84
2023/06/21 05:30:51;;;;;;;31.40;23.13;;;;;;;18.13;100.00;101326.94;5012539;28;20033;-87
2023/06/21 05:33:17;;;;;;;35.53;23.80;;;;;;;18.15;100.00;101321.19;5012518;28;20053;-86
2023/06/21 05:35:42;;;;;;;29.67;22.57;;;;;;;18.13;100.00;101321.44;4979610;28;20038;-87
2023/06/21 05:38:08;;;;;;;33.28;23.45;;;;;;;18.09;100.00;101330.47;5013588;28;20100;-86
2023/06/21 05:40:34;;;;;;;34.30;23.67;;;;;;;18.06;100.00;101324.38;4980450;28;20565;-86
2023/06/21 05:43:01;;;;;;;37.40;23.90;;;;;;;18.06;100.00;101327.13;4996688;28;20037;-86
2023/06/21 05:45:28;;;;;;;41.60;24.20;;;;;;;18.03;100.00;101330.38;5011885;28;20474;-86
2023/06/21 05:47:54;;;;;;;29.10;22.73;;;;;;;18.02;100.00;101334.19;4996142;28;20027;-86
2023/06/21 05:50:19;;;;;;;33.37;23.43;;;;;;;18.04;100.00;101332.03;5011933;28;20064;-86
2023/06/21 05:52:45;;;;;;;40.83;23.45;;;;;;;18.05;100.00;101336.47;4996175;28;20034;-86
2023/06/21 05:55:10;;;;;;;32.37;22.20;;;;;;;18.11;100.00;101336.50;5012161;28;20441;-86
2023/06/21 05:57:36;;;;;;;32.17;23.03;;;;;;;18.16;100.00;101342.06;4995611;28;20125;-86
2023/06/21 06:00:03;;;;;;;31.87;22.27;;;;;;;18.17;100.00;101351.97;5011916;28;20033;-87
2023/06/21 06:02:29;;;;;;;31.73;22.80;;;;;;;18.17;100.00;101361.06;4980126;28;20034;-86
2023/06/21 06:04:54;;;;;;;32.07;22.93;;;;;;;18.17;100.00;101366.53;4979334;28;20030;-86
2023/06/21 06:07:19;;;;;;;32.45;23.10;;;;;;;18.16;100.00;101370.38;5013257;28;20088;-83
2023/06/21 06:09:45;;;;;;;35.50;23.33;;;;;;;18.21;100.00;101364.94;4995555;28;20370;-86
2023/06/21 06:12:11;;;;;;;34.60;23.73;;;;;;;18.22;100.00;101374.84;5014876;28;20492;-86
2023/06/21 06:14:36;;;;;;;32.03;22.65;;;;;;;18.31;100.00;101372.47;5016666;28;20030;-87
2023/06/21 06:17:01;;;;;;;31.73;22.90;;;;;;;18.34;100.00;101360.97;5015517;28;20466;-87
2023/06/21 06:19:27;;;;;;;31.40;21.30;;;;;;;18.39;100.00;101372.06;5016998;28;20533;-86
2023/06/21 06:21:52;;;;;;;26.03;18.93;;;;;;;18.42;100.00;101370.69;5015628;28;20165;-86
2023/06/21 06:24:17;;;;;;;28.50;18.60;;;;;;;18.50;100.00;101374.91;5015161;28;20041;-86
2023/06/21 06:26:43;;;;;;;24.67;19.20;;;;;;;18.53;100.00;101383.47;4999228;28;20113;-87
2023/06/21 06:29:08;;;;;;;22.52;17.23;;;;;;;18.50;100.00;101383.16;5015642;28;20492;-86
2023/06/21 06:31:34;;;;;;;21.10;16.40;;;;;;;18.52;100.00;101390.06;4998739;28;20508;-85
2023/06/21 06:33:59;;;;;;;20.23;13.10;;;;;;;18.53;100.00;101393.66;5016466;28;20473;-85
2023/06/21 06:36:25;;;;;;;16.47;12.83;;;;;;;18.58;100.00;101402.75;4982544;28;20124;-86
2023/06/21 06:38:52;;;;;;;16.50;12.20;;;;;;;18.60;100.00;101394.25;5014847;28;20084;-86
2023/06/21 06:41:18;;;;;;;16.83;13.00;;;;;;;18.67;100.00;101405.06;5014731;28;20056;-87
2023/06/21 06:43:44;;;;;;;18.10;13.52;;;;;;;18.71;100.00;101404.31;5016254;28;20104;-85
2023/06/21 06:46:10;;;;;;;18.33;12.60;;;;;;;18.81;100.00;101411.84;4998339;28;20056;-86
2023/06/21 06:48:35;;;;;;;15.45;11.20;;;;;;;18.87;100.00;101416.34;4998639;28;20065;-85
2023/06/21 06:51:01;;;;;;;14.67;10.97;;;;;;;19.08;100.00;101416.56;5016035;28;20030;-86
2023/06/21 06:53:26;;;;;;;15.53;10.10;;;;;;;19.20;100.00;101425.50;4998896;28;20125;-85
2023/06/21 06:55:53;;;;;;;13.63;9.53;;;;;;;19.26;100.00;101438.19;5014371;28;20481;-85
2023/06/21 06:58:19;;;;;;;11.98;9.48;;;;;;;19.23;100.00;101443.41;5014524;28;20029;-86
2023/06/21 07:00:45;;;;;;;14.35;9.95;;;;;;;19.20;100.00;101439.25;5014448;28;20033;-86
2023/06/21 07:03:10;;;;;;;13.63;9.35;;;;;;;19.16;100.00;101448.28;4998142;28;20025;-86
2023/06/21 07:05:36;;;;;;;13.07;9.80;;;;;;;19.06;100.00;101433.34;4998709;28;20132;-86
2023/06/21 07:08:03;;;;;;;13.73;9.07;;;;;;;19.11;100.00;101438.88;4998227;28;20377;-86
2023/06/21 07:10:29;;;;;;;15.88;9.73;;;;;;;19.17;100.00;101441.69;4998475;28;20033;-86
2023/06/21 07:12:54;;;;;;;17.05;11.15;;;;;;;19.20;100.00;101435.66;5014650;28;20046;-86
2023/06/21 07:15:19;;;;;;;13.50;10.47;;;;;;;19.23;100.00;101438.72;5014329;28;20040;-85
2023/06/21 07:17:47;;;;;;;15.03;11.90;;;;;;;19.40;100.00;101441.38;4981954;28;20124;-90
2023/06/21 07:20:13;;;;;;;15.98;12.35;;;;;;;19.64;100.00;101443.81;5015758;28;20030;-86
2023/06/21 07:22:38;;;;;;;20.13;13.27;;;;;;;19.88;100.00;101440.72;5014079;28;20087;-86
2023/06/21 07:25:04;;;;;;;20.10;13.13;;;;;;;20.15;100.00;101444.22;4998535;28;20132;-87
2023/06/21 07:27:30;;;;;;;20.40;14.30;;;;;;;20.20;100.00;101446.19;4998304;28;20037;-86
2023/06/21 07:29:56;;;;;;;20.43;13.17;;;;;;;20.03;100.00;101445.50;5014175;28;20030;-87
2023/06/21 07:32:21;;;;;;;19.95;12.57;;;;;;;19.86;100.00;101438.22;5014063;28;20034;-87
2023/06/21 07:34:46;;;;;;;14.50;11.73;;;;;;;19.76;100.00;101446.38;5014169;28;20115;-85
2023/06/21 07:37:12;;;;;;;19.07;12.20;;;;;;;19.75;100.00;101441.94;4997494;28;20073;-86
2023/06/21 07:39:39;;;;;;;15.65;11.25;;;;;;;19.78;100.00;101449.72;4997703;28;20183;-86
2023/06/21 07:42:05;;;;;;;13.90;11.70;;;;;;;19.93;100.00;101457.25;5014951;28;20053;-88
2023/06/21 07:44:31;;;;;;;14.43;10.90;;;;;;;19.98;100.00;101457.31;5013773;28;20049;-86
2023/06/21 07:46:56;;;;;;;13.50;10.95;;;;;;;20.03;100.00;101457.34;5014979;28;20041;-86
2023/06/21 07:49:22;;;;;;;13.23;11.50;;;;;;;20.04;100.00;101463.69;5013852;28;20060;-85
2023/06/21 07:51:47;;;;;;;15.98;12.20;;;;;;;20.05;100.00;101460.69;5013718;28;20037;-86
2023/06/21 07:54:16;;;;;;;15.03;11.27;;;;;;;20.21;100.00;101467.13;5014111;28;20033;-86
2023/06/21 07:56:41;;;;;;;13.77;11.52;;;;;;;20.39;100.00;101465.00;5013897;28;20061;-86
2023/06/21 07:59:07;;;;;;;15.60;11.63;;;;;;;20.39;100.00;101462.25;5013743;28;20520;-86
2023/06/21 08:01:32;;;;;;;14.63;11.73;;;;;;;20.48;100.00;101466.19;4997509;28;20108;-86
2023/06/21 08:03:59;;;;;;;17.60;11.73;;;;;;;20.62;100.00;101464.59;5013351;28;20111;-86
2023/06/21 08:06:26;;;;;;;15.35;11.32;;;;;;;20.72;100.00;101474.88;4996884;28;20044;-86
2023/06/21 08:08:54;;;;;;;14.55;11.43;;;;;;;20.69;99.50;101467.16;4997175;28;20033;-86
2023/06/21 08:11:20;;;;;;;10.35;8.68;;;;;;;20.59;95.28;101473.41;4997558;28;20057;-86
2023/06/21 08:13:45;;;;;;;10.47;8.93;;;;;;;20.53;94.88;101479.97;4997329;28;20099;-86
2023/06/21 08:16:11;;;;;;;11.38;9.13;;;;;;;20.49;95.83;101485.22;5012945;28;20076;-87
2023/06/21 08:18:36;;;;;;;11.63;8.93;;;;;;;20.49;94.75;101476.94;4996743;28;20060;-86
2023/06/21 08:21:05;;;;;;;11.70;8.67;;;;;;;20.60;96.46;101480.56;5013472;28;20528;-86
2023/06/21 08:23:30;;;;;;;11.02;7.85;;;;;;;20.68;96.38;101482.88;4997394;28;20041;-86
2023/06/21 08:25:56;;;;;;;9.23;7.87;;;;;;;20.70;94.42;101477.09;5013093;28;20049;-86
2023/06/21 08:28:21;;;;;;;9.27;7.60;;;;;;;20.75;92.62;101484.53;5013171;28;20037;-86
2023/06/21 08:30:47;;;;;;;10.43;8.10;;;;;;;20.78;93.77;101484.81;4996642;28;20034;-87
2023/06/21 08:33:12;;;;;;;11.40;9.17;;;;;;;20.78;93.69;101484.00;5012680;28;20445;-87
2023/06/21 08:35:38;;;;;;;11.67;8.37;;;;;;;20.80;94.78;101482.66;4996739;28;20030;-86
2023/06/21 08:38:03;;;;;;;10.00;8.60;;;;;;;20.83;92.86;101487.63;5013209;28;20052;-86
2023/06/21 08:40:33;;;;;;;14.30;8.63;;;;;;;20.94;94.56;101482.16;5013016;28;20029;-87
2023/06/21 08:43:00;;;;;;;9.77;8.27;;;;;;;20.95;93.12;101473.59;5013178;28;20064;-87
2023/06/21 08:45:26;;;;;;;12.10;8.70;;;;;;;21.07;93.48;101476.13;5013996;28;20044;-87
2023/06/21 08:47:52;;;;;;;8.55;6.95;;;;;;;21.14;90.42;101478.59;5012951;28;20037;-86
2023/06/21 08:50:19;;;;;;;8.80;7.40;;;;;;;21.17;85.53;101476.16;4996372;28;20053;-87
2023/06/21 08:52:46;;;;;;;9.32;6.75;;;;;;;21.28;88.24;101485.28;5014089;28;20045;-87
2023/06/21 08:55:16;;;;;;;11.00;7.47;;;;;;;21.38;86.92;101481.72;5012987;28;20065;-86
2023/06/21 08:57:50;;;;;;;10.03;6.80;;;;;;;21.49;86.41;101485.31;4996975;28;20052;-86
2023/06/21 09:00:22;;;;;;;7.28;5.00;;;;;;;21.56;81.70;101491.44;5012924;28;20030;-87
2023/06/21 09:03:06;;;;;;;6.72;5.18;;;;;;;21.63;81.95;101485.63;5012651;28;20025;-87
2023/06/21 09:05:54;;;;;;;7.00;5.80;;;;;;;21.65;81.42;101489.78;5013531;28;20469;-87
2023/06/21 09:08:20;;;;;;;6.45;5.00;;;;;;;21.76;79.91;101490.66;5012481;28;20037;-87
2023/06/21 09:10:51;;;;;;;6.00;5.40;;;;;;;21.93;80.08;101490.34;4996147;28;20046;-87
2023/06/21 09:13:20;;;;;;;8.65;5.35;;;;;;;22.03;79.09;101486.78;5013874;28;20033;-86
2023/06/21 09:15:48;;;;;;;3.90;2.95;;;;;;;22.00;68.96;101501.16;5012986;28;20037;-85
2023/06/21 09:18:15;;;;;;;4.57;3.10;;;;;;;22.02;71.27;101487.88;4996719;28;20034;-90
2023/06/21 09:20:46;;;;;;;4.83;4.10;;;;;;;22.10;72.09;101503.06;5012647;28;20053;-89
2023/06/21 09:23:14;;;;;;;4.60;3.67;;;;;;;22.17;70.53;101501.66;5013487;28;20041;-90
2023/06/21 09:25:48;;;;;;;3.80;3.40;;;;;;;22.29;71.49;101503.31;5012724;28;20042;-90
2023/06/21 09:28:16;;;;;;;5.68;4.38;;;;;;;22.37;71.10;101505.56;5012936;28;20121;-91
2023/06/21 09:30:42;;;;;;;5.57;4.30;;;;;;;22.52;72.33;101491.69;5012853;28;20033;-90
2023/06/21 09:33:07;;;;;;;7.77;5.20;;;;;;;22.64;72.17;101496.09;4996508;28;20478;-90
2023/06/21 09:35:38;;;;;;;6.87;4.93;;;;;;;22.66;71.55;101505.78;5012746;28;20049;-92
2023/06/21 09:38:25;;;;;;;6.80;3.90;;;;;;;22.64;71.50;101505.19;5013303;28;20030;-91
2023/06/21 09:40:51;;;;;;;5.55;3.58;;;;;;;22.72;68.40;101509.31;5012657;28;20050;-91
2023/06/21 09:43:27;;;;;;;5.10;4.00;;;;;;;22.84;68.64;101517.31;5013238;28;20042;-90
2023/06/21 09:46:00;;;;;;;4.95;4.30;;;;;;;22.93;69.28;101513.69;5015095;28;20093;-91
2023/06/21 09:48:26;;;;;;;5.63;4.03;;;;;;;23.03;68.88;101506.44;5016506;28;20037;-90
2023/06/21 09:50:55;;;;;;;6.53;4.57;;;;;;;23.15;70.53;101503.38;5016393;28;20382;-90
2023/06/21 09:53:23;;;;;;;5.72;4.28;;;;;;;23.18;68.07;101511.09;5016064;28;20038;-92
2023/06/21 09:55:51;;;;;;;7.47;4.73;;;;;;;23.12;68.26;101508.38;5016476;28;20042;-89
2023/06/21 09:58:17;;;;;;;8.55;4.22;;;;;;;23.13;66.62;101506.41;5016021;28;20057;-89
2023/06/21 10:00:45;;;;;;;3.15;2.65;;;;;;;23.16;62.02;101511.38;5015911;28;20492;-90
2023/06/21 10:03:11;;;;;;;3.22;2.53;;;;;;;23.32;63.45;101508.56;4999816;28;20060;-91
2023/06/21 10:05:52;;;;;;;3.17;2.83;;;;;;;23.45;63.71;101516.22;5016284;28;20462;-90
2023/06/21 10:08:26;;;;;;;5.30;3.13;;;;;;;23.56;64.54;101522.50;5015788;28;20382;-91
2023/06/21 10:10:52;;;;;;;6.60;4.05;;;;;;;23.64;64.21;101517.19;5015871;28;20030;-92
2023/06/21 10:13:24;;;;;;;9.30;4.73;;;;;;;23.86;64.62;101528.97;5015878;28;20041;-91
2023/06/21 10:15:50;;;;;;;6.25;4.40;;;;;;;24.20;65.68;101528.13;5016983;28;20534;-90
2023/06/21 10:18:16;;;;;;;6.25;5.40;;;;;;;24.45;63.91;101527.09;5016393;28;20060;-90
2023/06/21 10:20:42;;;;;;;8.57;5.23;;;;;;;24.38;63.33;101544.06;5015912;28;20065;-91
2023/06/21 10:23:13;;;;;;;6.28;5.35;;;;;;;24.53;63.30;101543.91;5016171;28;20086;-91
2023/06/21 10:25:40;;;;;;;5.05;4.38;;;;;;;24.81;61.91;101543.38;5016337;28;20145;-90
2023/06/21 10:28:08;;;;;;;6.60;4.25;;;;;;;24.92;61.22;101550.47;5016227;28;20034;-93
2023/06/21 10:30:34;;;;;;;5.50;3.85;;;;;;;24.94;58.22;101550.16;5016221;28;20172;-91
2023/06/21 10:33:09;;;;;;;5.07;3.40;;;;;;;24.99;56.66;101550.91;4999797;28;20088;-90
2023/06/21 10:35:42;;;;;;;4.72;4.03;;;;;;;25.20;57.01;101559.81;5016360;28;20057;-91
2023/06/21 10:38:46;;;;;;;5.20;4.38;;;;;;;25.62;58.92;101562.06;5015333;28;20519;-91
2023/06/21 10:41:14;;;;;;;8.02;4.68;;;;;;;25.82;55.53;101556.22;4940685;29;20058;-91
2023/06/21 10:43:40;;;;;;;6.55;4.90;;;;;;;25.88;56.89;101556.94;5002458;28;20505;-91
2023/06/21 10:46:09;;;;;;;7.87;5.50;;;;;;;25.77;55.13;101559.06;4999431;28;20466;-91
2023/06/21 10:48:35;;;;;;;6.72;4.82;;;;;;;25.85;56.29;101558.38;5016319;28;20038;-90
2023/06/21 10:51:02;;;;;;;6.68;5.60;;;;;;;26.07;54.07;101562.50;5016834;28;20034;-91
2023/06/21 10:53:32;;;;;;;7.80;5.10;;;;;;;26.20;55.33;101563.69;5016842;28;20065;-91
2023/06/21 10:56:01;;;;;;;7.40;6.40;;;;;;;26.41;54.84;101562.19;5016455;28;20038;-85
2023/06/21 10:58:28;;;;;;;6.77;6.10;;;;;;;26.46;52.94;101558.50;5014837;28;20380;-85
2023/06/21 11:00:55;;;;;;;6.70;5.50;;;;;;;25.96;53.49;101561.00;5014725;28;20037;-85
2023/06/21 11:03:25;;;;;;;5.85;5.22;;;;;;;25.77;53.40;101556.28;5015150;28;20057;-85
2023/06/21 11:06:21;;;;;;;5.93;4.60;;;;;;;26.14;55.57;101564.91;5014581;28;20049;-85
2023/06/21 11:08:46;;;;;;;6.65;4.00;;;;;;;26.32;50.66;101571.53;5007389;28;20041;-85